Ipecaeta, Brazil
Current Conditions -  °F | °C
As of 12:00 PM on Friday 31 Oct 2014 (Local Time) from SBSV Reporting Station
Scattered Clouds Scattered Clouds  
Wind Chill: 84°   Ceiling: Unl
Heat Index: 88°   Visibility: 6mi
Dew Point: 70°   Wind: 14mph
Humidity: 62%   Direction: 110°ESE
Pressure: 30"   Gusts: NA
Location:  12.3°S, 39.31°W
Report Text: SBSV 311500Z 11012KT 9999 SCT017 29/21 Q1016
Loading
Personal Weather Stations






























Interactive Weather Map
Tropical Storm Tracking
New forecast layout! Learn more

10-Day Weather Forecast

Advertisements
Track Severe Weather on mobile